Map

Track Data

SID SEASON NUMBER BASIN SUBBASIN NAME ISO_TIME NATURE LAT LON WMO_WIND WMO_PRES WMO_AGENCY TRACK_TYPE DIST2LAND LANDFALL IFLAG USA_AGENCY USA_ATCF_ID USA_LAT USA_LON USA_RECORD USA_STATUS USA_WIND USA_PRES USA_SSHS USA_R34_NE USA_R34_SE USA_R34_SW USA_R34_NW USA_R50_NE USA_R50_SE USA_R50_SW USA_R50_NW USA_R64_NE USA_R64_SE USA_R64_SW USA_R64_NW USA_POCI USA_ROCI USA_RMW USA_EYE TOKYO_LAT TOKYO_LON TOKYO_GRADE TOKYO_WIND TOKYO_PRES TOKYO_R50_DIR TOKYO_R50_LONG TOKYO_R50_SHORT TOKYO_R30_DIR TOKYO_R30_LONG TOKYO_R30_SHORT TOKYO_LAND CMA_LAT CMA_LON CMA_CAT CMA_WIND CMA_PRES HKO_LAT HKO_LON HKO_CAT HKO_WIND HKO_PRES NEWDELHI_LAT NEWDELHI_LON NEWDELHI_GRADE NEWDELHI_WIND NEWDELHI_PRES NEWDELHI_CI NEWDELHI_DP NEWDELHI_POCI REUNION_LAT REUNION_LON REUNION_TYPE REUNION_WIND REUNION_PRES REUNION_TNUM REUNION_CI REUNION_RMW REUNION_R34_NE REUNION_R34_SE REUNION_R34_SW REUNION_R34_NW REUNION_R50_NE REUNION_R50_SE REUNION_R50_SW REUNION_R50_NW REUNION_R64_NE REUNION_R64_SE REUNION_R64_SW REUNION_R64_NW BOM_LAT BOM_LON BOM_TYPE BOM_WIND BOM_PRES BOM_TNUM BOM_CI BOM_RMW BOM_R34_NE BOM_R34_SE BOM_R34_SW BOM_R34_NW BOM_R50_NE BOM_R50_SE BOM_R50_SW BOM_R50_NW BOM_R64_NE BOM_R64_SE BOM_R64_SW BOM_R64_NW BOM_ROCI BOM_POCI BOM_EYE BOM_POS_METHOD BOM_PRES_METHOD NADI_LAT NADI_LON NADI_CAT NADI_WIND NADI_PRES WELLINGTON_LAT WELLINGTON_LON WELLINGTON_WIND WELLINGTON_PRES DS824_LAT DS824_LON DS824_STAGE DS824_WIND DS824_PRES TD9636_LAT TD9636_LON TD9636_STAGE TD9636_WIND TD9636_PRES TD9635_LAT TD9635_LON TD9635_WIND TD9635_PRES TD9635_ROCI NEUMANN_LAT NEUMANN_LON NEUMANN_CLASS NEUMANN_WIND NEUMANN_PRES MLC_LAT MLC_LON MLC_CLASS MLC_WIND MLC_PRES USA_GUST BOM_GUST BOM_GUST_PER REUNION_GUST REUNION_GUST_PER USA_SEAHGT USA_SEARAD_NE USA_SEARAD_SE USA_SEARAD_SW USA_SEARAD_NW STORM_SPEED STORM_DIR
1887303N27274 1887 68 NA GM NOT_NAMED 1887-10-29 12:00:00 TS 26.5000 -86.0000 35 hurdat_atl main 343 266 O_____________ hurdat_atl AL161887 26.5000 -86.0000 TS 35 0 15 63
1887303N27274 1887 68 NA GM NOT_NAMED 1887-10-29 15:00:00 TS 26.8310 -85.2638 main 266 175 P_____________ AL161887 26.8310 -85.2638 TS 37 0 15 62
1887303N27274 1887 68 NA GM NOT_NAMED 1887-10-29 18:00:00 TS 27.2000 -84.5000 40 hurdat_atl main 175 94 O_____________ hurdat_atl AL161887 27.2000 -84.5000 TS 40 0 16 60
1887303N27274 1887 68 NA GM NOT_NAMED 1887-10-29 21:00:00 TS 27.6210 -83.7098 main 85 14 P_____________ AL161887 27.6210 -83.7098 TS 40 0 16 59
1887303N27274 1887 68 NA GM NOT_NAMED 1887-10-30 00:00:00 TS 28.0000 -83.0000 40 hurdat_atl main 14 0 O_____________ hurdat_atl AL161887 28.0000 -83.0000 TS 40 0 14 59
1887303N27274 1887 68 NA GM NOT_NAMED 1887-10-30 01:00:00 TS 28.1000 -82.8000 40 hurdat_atl main 0 0 O_____________ hurdat_atl AL161887 28.1000 -82.8000 L TS 40 0 14 58
1887303N27274 1887 68 NA NA NOT_NAMED 1887-10-30 03:00:00 TS 28.3725 -82.3204 main 0 0 P_____________ AL161887 28.3725 -82.3204 TS 37 0 17 55
1887303N27274 1887 68 NA NA NOT_NAMED 1887-10-30 06:00:00 TS 28.9000 -81.5000 35 hurdat_atl main 0 0 O_____________ hurdat_atl AL161887 28.9000 -81.5000 TS 35 0 17 53
1887303N27274 1887 68 NA NA NOT_NAMED 1887-10-30 09:00:00 TS 29.4236 -80.7298 main 36 36 P_____________ AL161887 29.4236 -80.7298 TS 37 0 17 50
1887303N27274 1887 68 NA NA NOT_NAMED 1887-10-30 12:00:00 TS 30.0000 -80.0000 40 hurdat_atl main 123 123 O_____________ hurdat_atl AL161887 30.0000 -80.0000 TS 40 0 17 45
1887303N27274 1887 68 NA NA NOT_NAMED 1887-10-30 15:00:00 TS 30.6269 -79.3340 main 200 189 P_____________ AL161887 30.6269 -79.3340 TS 42 0 17 41
1887303N27274 1887 68 NA NA NOT_NAMED 1887-10-30 18:00:00 TS 31.3000 -78.7000 45 hurdat_atl main 189 165 O_____________ hurdat_atl AL161887 31.3000 -78.7000 TS 45 0 18 39
1887303N27274 1887 68 NA NA NOT_NAMED 1887-10-30 21:00:00 TS 32.0072 -78.0495 main 172 144 P_____________ AL161887 32.0072 -78.0495 TS 47 0 18 38
1887303N27274 1887 68 NA NA NOT_NAMED 1887-10-31 00:00:00 TS 32.7000 -77.4000 50 hurdat_atl main 144 128 O_____________ hurdat_atl AL161887 32.7000 -77.4000 TS 50 0 17 39
1887303N27274 1887 68 NA NA NOT_NAMED 1887-10-31 03:00:00 TS 33.3371 -76.7493 main 137 96 P_____________ AL161887 33.3371 -76.7493 TS 52 0 16 42
1887303N27274 1887 68 NA NA NOT_NAMED 1887-10-31 06:00:00 TS 33.9000 -76.1000 55 hurdat_atl main 96 84 O_____________ hurdat_atl AL161887 33.9000 -76.1000 TS 55 0 15 45
1887303N27274 1887 68 NA NA NOT_NAMED 1887-10-31 09:00:00 TS 34.3945 -75.4567 main 91 91 P_____________ AL161887 34.3945 -75.4567 TS 57 0 14 50
1887303N27274 1887 68 NA NA NOT_NAMED 1887-10-31 12:00:00 TS 34.8000 -74.8000 60 hurdat_atl main 120 119 O_____________ hurdat_atl AL161887 34.8000 -74.8000 TS 60 0 13 57
1887303N27274 1887 68 NA NA NOT_NAMED 1887-10-31 15:00:00 TS 35.1222 -74.1065 main 148 148 P_____________ AL161887 35.1222 -74.1065 TS 60 0 13 62
1887303N27274 1887 68 NA NA NOT_NAMED 1887-10-31 18:00:00 TS 35.4000 -73.4000 60 993 hurdat_atl main 194 194 O_____________ hurdat_atl AL161887 35.4000 -73.4000 TS 60 993 0 13 63
1887303N27274 1887 68 NA NA NOT_NAMED 1887-10-31 21:00:00 TS 35.7067 -72.7219 main 252 252 P_____________ AL161887 35.7067 -72.7219 TS 62 0 13 62
1887303N27274 1887 68 NA NA NOT_NAMED 1887-11-01 00:00:00 ET 36.0000 -72.0000 65 hurdat_atl main 315 315 O_____________ hurdat_atl AL161887 36.0000 -72.0000 EX 65 -4 14 67
1887303N27274 1887 68 NA NA NOT_NAMED 1887-11-01 03:00:00 ET 36.2579 -71.1423 main 398 398 P_____________ AL161887 36.2579 -71.1423 EX 67 -4 15 70
1887303N27274 1887 68 NA NA NOT_NAMED 1887-11-01 06:00:00 ET 36.5000 -70.3000 70 hurdat_atl main 467 467 O_____________ hurdat_atl AL161887 36.5000 -70.3000 EX 70 -4 13 69
1887303N27274 1887 68 NA NA NOT_NAMED 1887-11-01 09:00:00 ET 36.7267 -69.6114 main 515 515 P_____________ AL161887 36.7267 -69.6114 EX 70 -4 12 64
1887303N27274 1887 68 NA NA NOT_NAMED 1887-11-01 12:00:00 ET 37.0000 -69.0000 70 hurdat_atl main 521 496 O_____________ hurdat_atl AL161887 37.0000 -69.0000 EX 70 -4 12 56
1887303N27274 1887 68 NA NA NOT_NAMED 1887-11-01 15:00:00 ET 37.3846 -68.3925 main 496 469 P_____________ AL161887 37.3846 -68.3925 EX 70 -4 12 50
1887303N27274 1887 68 NA NA NOT_NAMED 1887-11-01 18:00:00 ET 37.8000 -67.8000 70 hurdat_atl main 472 457 O_____________ hurdat_atl AL161887 37.8000 -67.8000 EX 70 -4 12 51
1887303N27274 1887 68 NA NA NOT_NAMED 1887-11-01 21:00:00 ET 38.1572 -67.1992 main 456 452 P_____________ AL161887 38.1572 -67.1992 EX 67 -4 12 53
1887303N27274 1887 68 NA NA NOT_NAMED 1887-11-02 00:00:00 ET 38.5000 -66.6000 65 hurdat_atl main 458 454 O_____________ hurdat_atl AL161887 38.5000 -66.6000 EX 65 -4 12 54
1887303N27274 1887 68 NA NA NOT_NAMED 1887-11-02 03:00:00 ET 38.8420 -66.0140 main 467 459 P_____________ AL161887 38.8420 -66.0140 EX 62 -4 12 53
1887303N27274 1887 68 NA NA NOT_NAMED 1887-11-02 06:00:00 ET 39.2000 -65.4000 60 hurdat_atl main 477 435 O_____________ hurdat_atl AL161887 39.2000 -65.4000 EX 60 -4 12 51
1887303N27274 1887 68 NA NA NOT_NAMED 1887-11-02 09:00:00 ET 39.6059 -64.7816 main 435 401 P_____________ AL161887 39.6059 -64.7816 EX 60 -4 13 53
1887303N27274 1887 68 NA NA NOT_NAMED 1887-11-02 12:00:00 ET 40.0000 -64.0000 60 hurdat_atl main 403 392 O_____________ hurdat_atl AL161887 40.0000 -64.0000 EX 60 -4 15 62
1887303N27274 1887 68 NA NA NOT_NAMED 1887-11-02 15:00:00 ET 40.3193 -63.0206 main 403 397 P_____________ AL161887 40.3193 -63.0206 EX 60 -4 18 71
1887303N27274 1887 68 NA NA NOT_NAMED 1887-11-02 18:00:00 ET 40.6000 -61.7000 60 hurdat_atl main 437 437 O_____________ hurdat_atl AL161887 40.6000 -61.7000 EX 60 -4 24 77
1887303N27274 1887 68 NA NA NOT_NAMED 1887-11-02 21:00:00 ET 40.8682 -59.9176 main 482 482 P_____________ AL161887 40.8682 -59.9176 EX 60 -4 28 80
1887303N27274 1887 68 NA NA NOT_NAMED 1887-11-03 00:00:00 ET 41.1000 -58.0000 60 hurdat_atl main 520 520 O_____________ hurdat_atl AL161887 41.1000 -58.0000 EX 60 -4 27 81
1887303N27274 1887 68 NA NA NOT_NAMED 1887-11-03 03:00:00 ET 41.2973 -56.3306 main 580 576 P_____________ AL161887 41.2973 -56.3306 EX 60 -4 24 81
1887303N27274 1887 68 NA NA NOT_NAMED 1887-11-03 06:00:00 ET 41.5000 -54.8000 60 hurdat_atl main 574 555 O_____________ hurdat_atl AL161887 41.5000 -54.8000 EX 60 -4 22 81
1887303N27274 1887 68 NA NA NOT_NAMED 1887-11-03 09:00:00 ET 41.6230 -53.4624 main 555 518 P_____________ AL161887 41.6230 -53.4624 EX 60 -4 21 77
1887303N27274 1887 68 NA NA NOT_NAMED 1887-11-03 12:00:00 ET 42.0000 -52.0000 60 hurdat_atl main 520 493 O_____________ hurdat_atl AL161887 42.0000 -52.0000 EX 60 -4 28 66
1887303N27274 1887 68 NA NA NOT_NAMED 1887-11-03 15:00:00 ET 42.7870 -49.9582 main 491 489 P_____________ AL161887 42.7870 -49.9582 EX 60 -4 37 57
1887303N27274 1887 68 NA NA NOT_NAMED 1887-11-03 18:00:00 ET 44.0000 -47.8000 60 hurdat_atl main 509 508 O_____________ hurdat_atl AL161887 44.0000 -47.8000 EX 60 -4 40 46
1887303N27274 1887 68 NA NA NOT_NAMED 1887-11-03 21:00:00 ET 45.5668 -45.9755 main 544 544 P_____________ AL161887 45.5668 -45.9755 EX 60 -4 42 37
1887303N27274 1887 68 NA NA NOT_NAMED 1887-11-04 00:00:00 ET 47.4000 -44.2000 60 hurdat_atl main 628 628 O_____________ hurdat_atl AL161887 47.4000 -44.2000 EX 60 -4 45 34
1887303N27274 1887 68 NA NA NOT_NAMED 1887-11-04 03:00:00 ET 49.3594 -42.2520 main 779 779 P_____________ AL161887 49.3594 -42.2520 EX 60 -4 45 35
1887303N27274 1887 68 NA NA NOT_NAMED 1887-11-04 06:00:00 ET 51.1000 -40.2000 60 hurdat_atl main 957 923 O_____________ hurdat_atl AL161887 51.1000 -40.2000 EX 60 -4 39 42
1887303N27274 1887 68 NA NA NOT_NAMED 1887-11-04 09:00:00 ET 52.2791 -38.0894 main 916 892 P_____________ AL161887 52.2791 -38.0894 EX 60 -4 32 54
1887303N27274 1887 68 NA NA NOT_NAMED 1887-11-04 12:00:00 ET 53.0000 -36.0000 60 hurdat_atl main 896 892 O_____________ hurdat_atl AL161887 53.0000 -36.0000 EX 60 -4 27 65
1887303N27274 1887 68 NA NA NOT_NAMED 1887-11-04 15:00:00 ET 53.4367 -33.9967 main 922 917 P_____________ AL161887 53.4367 -33.9967 EX 60 -4 24 76
1887303N27274 1887 68 NA NA NOT_NAMED 1887-11-04 18:00:00 ET 53.6000 -32.0000 60 hurdat_atl main 981 981 O_____________ hurdat_atl AL161887 53.6000 -32.0000 EX 60 -4 24 85
1887303N27274 1887 68 NA NA NOT_NAMED 1887-11-04 21:00:00 ET 53.6559 -29.8907 main 1063 1063 P_____________ AL161887 53.6559 -29.8907 EX 60 -4 25 90
1887303N27274 1887 68 NA NA NOT_NAMED 1887-11-05 00:00:00 ET 53.6000 -27.7000 60 hurdat_atl main 1145 1005 O_____________ hurdat_atl AL161887 53.6000 -27.7000 EX 60 -4 27 93
1887303N27274 1887 68 NA NA NOT_NAMED 1887-11-05 03:00:00 ET 53.5288 -25.3856 main 999 856 P_____________ AL161887 53.5288 -25.3856 EX 60 -4 27 94
1887303N27274 1887 68 NA NA NOT_NAMED 1887-11-05 06:00:00 ET 53.4000 -23.1000 60 990 hurdat_atl main 849 720 O_____________ hurdat_atl AL161887 53.4000 -23.1000 EX 60 990 -4 26 97
1887303N27274 1887 68 NA NA NOT_NAMED 1887-11-05 09:00:00 ET 53.2263 -20.9769 main 713 586 P_____________ AL161887 53.2263 -20.9769 EX 60 -4 25 99
1887303N27274 1887 68 NA NA NOT_NAMED 1887-11-05 12:00:00 ET 53.0000 -19.0000 60 hurdat_atl main 579 463 O_____________ hurdat_atl AL161887 53.0000 -19.0000 EX 60 -4 23 103
1887303N27274 1887 68 NA NA NOT_NAMED 1887-11-05 15:00:00 ET 52.7091 -17.1943 main 456 340 P_____________ AL161887 52.7091 -17.1943 EX 60 -4 23 105
1887303N27274 1887 68 NA NA NOT_NAMED 1887-11-05 18:00:00 ET 52.4000 -15.4000 60 hurdat_atl main 333 210 O_____________ hurdat_atl AL161887 52.4000 -15.4000 EX 60 -4 24 104
1887303N27274 1887 68 NA NA NOT_NAMED 1887-11-05 21:00:00 ET 52.1276 -13.4435 main 197 75 P_____________ AL161887 52.1276 -13.4435 EX 57 -4 25 104
1887303N27274 1887 68 NA NA NOT_NAMED 1887-11-06 00:00:00 ET 51.8000 -11.4000 55 hurdat_atl main 68 0 O_____________ hurdat_atl AL161887 51.8000 -11.4000 EX 55 -4 27 108
1887303N27274 1887 68 NA NA NOT_NAMED 1887-11-06 03:00:00 ET 51.3148 -9.29426 main 22 22 P_____________ AL161887 51.3148 -9.29426 EX 52 -4 27 111
1887303N27274 1887 68 NA NA NOT_NAMED 1887-11-06 06:00:00 ET 50.8000 -7.30000 50 hurdat_atl main 121 39 O_____________ hurdat_atl AL161887 50.8000 -7.30000 EX 50 -4 25 111
1887303N27274 1887 68 NA NA NOT_NAMED 1887-11-06 09:00:00 ET 50.4463 -5.62660 main 26 0 P_____________ AL161887 50.4463 -5.62660 EX 47 -4 22 111
1887303N27274 1887 68 NA NA NOT_NAMED 1887-11-06 12:00:00 ET 50.0000 -4.00000 45 hurdat_atl main 26 23 O_____________ hurdat_atl AL161887 50.0000 -4.00000 EX 45 -4 25 119
1887303N27274 1887 68 NA NA NOT_NAMED 1887-11-06 15:00:00 ET 49.2531 -2.22852 main 30 0 P_____________ AL161887 49.2531 -2.22852 EX 42 -4 29 126
1887303N27274 1887 68 NA NA NOT_NAMED 1887-11-06 18:00:00 ET 48.3000 -0.400000 40 hurdat_atl main 0 O_____________ hurdat_atl AL161887 48.3000 -0.400000 EX 40 -4 31 128

About IBTrACS Database

This database is a web-friendly format of International Best Track Archive for Climate Stewardship (IBTrACS), a global best track data archive curated by NOAA dating back to 1842.

Updated: 2021-11-26